FLH409 KFXE-KHXD
Flight info
| Callsign | FLH409 |
|---|---|
| Flight time | 1h 16m |
| Altitude | 43000 |
| Route | FRSBE2 STYMY ZERBO Q87 VIYAP |
| Aircraft | C700/M-SBDGHM1RWXY/LB2 |
Departure
| Time | 2026-04-22 21:07 |
|---|---|
| Airport | Fort Lauderdale Executive Airport (KFXE) |
Arrival
| Time | 2026-04-22 22:23 |
|---|---|
| Airport | Hilton Head Airport (KHXD) |
| Time | Latitude | Longitude | Altitude | Speed | Heading |
|---|---|---|---|---|---|
| 2026-04-22 20:49 | 26.19466 | -80.17061 | 18 ft | 0 kts | 221° |
| 2026-04-22 21:03 | 26.19468 | -80.17079 | 35 ft | 10 kts | 299° |
| 2026-04-22 21:03 | 26.19531 | -80.17083 | 19 ft | 11 kts | 37° |
| 2026-04-22 21:04 | 26.19594 | -80.17119 | 18 ft | 17 kts | 309° |
| 2026-04-22 21:04 | 26.19675 | -80.17230 | 22 ft | 18 kts | 309° |
| 2026-04-22 21:04 | 26.19736 | -80.17320 | 21 ft | 13 kts | 292° |
| 2026-04-22 21:04 | 26.19729 | -80.17426 | 21 ft | 18 kts | 263° |
| 2026-04-22 21:05 | 26.19713 | -80.17592 | 15 ft | 24 kts | 263° |
| 2026-04-22 21:05 | 26.19695 | -80.17770 | 15 ft | 20 kts | 263° |
| 2026-04-22 21:05 | 26.19682 | -80.17909 | 13 ft | 17 kts | 264° |
| 2026-04-22 21:05 | 26.19670 | -80.18024 | 10 ft | 10 kts | 272° |
| 2026-04-22 21:06 | 26.19701 | -80.18072 | 9 ft | 6 kts | 340° |
| 2026-04-22 21:06 | 26.19733 | -80.18075 | 9 ft | 4 kts | 357° |
| 2026-04-22 21:06 | 26.19759 | -80.18056 | 9 ft | 6 kts | 69° |
| 2026-04-22 21:06 | 26.19777 | -80.17894 | 12 ft | 61 kts | 83° |
| 2026-04-22 21:07 | 26.19827 | -80.17386 | 19 ft | 134 kts | 83° |
| 2026-04-22 21:07 | 26.19930 | -80.16084 | 722 ft | 188 kts | 86° |
| 2026-04-22 21:07 | 26.20145 | -80.14613 | 1787 ft | 197 kts | 69° |
| 2026-04-22 21:07 | 26.21090 | -80.13422 | 2047 ft | 226 kts | 30° |
| 2026-04-22 21:08 | 26.22703 | -80.13292 | 2282 ft | 246 kts | 348° |
| 2026-04-22 21:08 | 26.24158 | -80.14333 | 2848 ft | 254 kts | 317° |
| 2026-04-22 21:08 | 26.25321 | -80.15837 | 3499 ft | 258 kts | 316° |
| 2026-04-22 21:08 | 26.26608 | -80.17209 | 4195 ft | 256 kts | 319° |
| 2026-04-22 21:09 | 26.27687 | -80.18809 | 5271 ft | 258 kts | 299° |
| 2026-04-22 21:09 | 26.28494 | -80.20560 | 6829 ft | 257 kts | 297° |
| 2026-04-22 21:09 | 26.29394 | -80.22278 | 8363 ft | 254 kts | 302° |
| 2026-04-22 21:09 | 26.30336 | -80.23890 | 9689 ft | 258 kts | 302° |
| 2026-04-22 21:10 | 26.31292 | -80.25618 | 10964 ft | 259 kts | 300° |
| 2026-04-22 21:10 | 26.32238 | -80.27339 | 12194 ft | 260 kts | 302° |
| 2026-04-22 21:10 | 26.33220 | -80.29061 | 13197 ft | 274 kts | 302° |
| 2026-04-22 21:10 | 26.34290 | -80.30988 | 13073 ft | 303 kts | 301° |
| 2026-04-22 21:11 | 26.35407 | -80.33017 | 12957 ft | 308 kts | 301° |
| 2026-04-22 21:11 | 26.36535 | -80.35034 | 12943 ft | 305 kts | 301° |
| 2026-04-22 21:11 | 26.37652 | -80.37031 | 12940 ft | 303 kts | 301° |
| 2026-04-22 21:11 | 26.38759 | -80.39027 | 12943 ft | 302 kts | 301° |
| 2026-04-22 21:12 | 26.39866 | -80.41016 | 12942 ft | 301 kts | 301° |
| 2026-04-22 21:12 | 26.40962 | -80.42984 | 13234 ft | 294 kts | 301° |
| 2026-04-22 21:12 | 26.41996 | -80.44849 | 14763 ft | 278 kts | 301° |
| 2026-04-22 21:12 | 26.43022 | -80.46701 | 15796 ft | 284 kts | 301° |
| 2026-04-22 21:13 | 26.44080 | -80.48587 | 16807 ft | 288 kts | 300° |
| 2026-04-22 21:13 | 26.45139 | -80.50511 | 17809 ft | 293 kts | 300° |
| 2026-04-22 21:13 | 26.46219 | -80.52460 | 18782 ft | 297 kts | 300° |
| 2026-04-22 21:13 | 26.47463 | -80.54312 | 19637 ft | 302 kts | 310° |
| 2026-04-22 21:14 | 26.49043 | -80.55885 | 20477 ft | 308 kts | 320° |
| 2026-04-22 21:14 | 26.50914 | -80.57109 | 21307 ft | 316 kts | 330° |
| 2026-04-22 21:14 | 26.53018 | -80.57919 | 22095 ft | 324 kts | 339° |
| 2026-04-22 21:14 | 26.55206 | -80.58600 | 22845 ft | 328 kts | 338° |
| 2026-04-22 21:15 | 26.57409 | -80.59316 | 23614 ft | 331 kts | 338° |
| 2026-04-22 21:15 | 26.59636 | -80.60022 | 24256 ft | 335 kts | 338° |
| 2026-04-22 21:15 | 26.61888 | -80.60731 | 24900 ft | 337 kts | 338° |
| 2026-04-22 21:15 | 26.64156 | -80.61450 | 25535 ft | 340 kts | 337° |
| 2026-04-22 21:16 | 26.66407 | -80.62169 | 26145 ft | 342 kts | 337° |
| 2026-04-22 21:16 | 26.68709 | -80.62902 | 26732 ft | 345 kts | 337° |
| 2026-04-22 21:16 | 26.71026 | -80.63638 | 27314 ft | 348 kts | 336° |
| 2026-04-22 21:16 | 26.73363 | -80.64381 | 27886 ft | 350 kts | 336° |
| 2026-04-22 21:17 | 26.75717 | -80.65132 | 28455 ft | 353 kts | 336° |
| 2026-04-22 21:17 | 26.78089 | -80.65887 | 29008 ft | 356 kts | 336° |
| 2026-04-22 21:17 | 26.80480 | -80.66650 | 29555 ft | 358 kts | 336° |
| 2026-04-22 21:17 | 26.82881 | -80.67415 | 30087 ft | 361 kts | 335° |
| 2026-04-22 21:18 | 26.85301 | -80.68187 | 30550 ft | 363 kts | 335° |
| 2026-04-22 21:18 | 26.87743 | -80.68967 | 30980 ft | 366 kts | 335° |
| 2026-04-22 21:18 | 26.90198 | -80.69750 | 31410 ft | 368 kts | 335° |
| 2026-04-22 21:18 | 26.92633 | -80.70606 | 31805 ft | 367 kts | 332° |
| 2026-04-22 21:19 | 26.95055 | -80.71537 | 32209 ft | 369 kts | 332° |
| 2026-04-22 21:19 | 26.97497 | -80.72457 | 32600 ft | 371 kts | 332° |
| 2026-04-22 21:19 | 26.99951 | -80.73377 | 32981 ft | 373 kts | 332° |
| 2026-04-22 21:19 | 27.02422 | -80.74312 | 33351 ft | 375 kts | 332° |
| 2026-04-22 21:20 | 27.04896 | -80.75251 | 33725 ft | 377 kts | 332° |
| 2026-04-22 21:20 | 27.07394 | -80.76197 | 34077 ft | 379 kts | 332° |
| 2026-04-22 21:20 | 27.09895 | -80.77143 | 34385 ft | 381 kts | 332° |
| 2026-04-22 21:20 | 27.12418 | -80.78098 | 34694 ft | 382 kts | 332° |
| 2026-04-22 21:21 | 27.14937 | -80.79053 | 34994 ft | 384 kts | 332° |
| 2026-04-22 21:21 | 27.17473 | -80.80015 | 35293 ft | 385 kts | 332° |
| 2026-04-22 21:21 | 27.20015 | -80.80980 | 35590 ft | 386 kts | 332° |
| 2026-04-22 21:21 | 27.22561 | -80.81946 | 35867 ft | 387 kts | 332° |
| 2026-04-22 21:22 | 27.25120 | -80.82918 | 36127 ft | 389 kts | 332° |
| 2026-04-22 21:22 | 27.27685 | -80.83893 | 36387 ft | 390 kts | 332° |
| 2026-04-22 21:22 | 27.30262 | -80.84872 | 36634 ft | 391 kts | 332° |
| 2026-04-22 21:22 | 27.32840 | -80.85865 | 36861 ft | 391 kts | 330° |
| 2026-04-22 21:23 | 27.35427 | -80.86936 | 37082 ft | 392 kts | 330° |
| 2026-04-22 21:23 | 27.37959 | -80.87982 | 37304 ft | 394 kts | 330° |
| 2026-04-22 21:23 | 27.40538 | -80.89036 | 37520 ft | 395 kts | 330° |
| 2026-04-22 21:23 | 27.43121 | -80.90095 | 37722 ft | 396 kts | 330° |
| 2026-04-22 21:24 | 27.45712 | -80.91163 | 37930 ft | 397 kts | 330° |
| 2026-04-22 21:24 | 27.48310 | -80.92234 | 38103 ft | 398 kts | 330° |
| 2026-04-22 21:24 | 27.50914 | -80.93306 | 38287 ft | 400 kts | 330° |
| 2026-04-22 21:24 | 27.53530 | -80.94383 | 38567 ft | 397 kts | 330° |
| 2026-04-22 21:25 | 27.56116 | -80.95443 | 38876 ft | 397 kts | 330° |
| 2026-04-22 21:25 | 27.58725 | -80.96531 | 38980 ft | 403 kts | 330° |
| 2026-04-22 21:25 | 27.61366 | -80.97622 | 39199 ft | 406 kts | 330° |
| 2026-04-22 21:25 | 27.64047 | -80.98726 | 39204 ft | 413 kts | 330° |
| 2026-04-22 21:26 | 27.69430 | -81.00941 | 39201 ft | 409 kts | 330° |
| 2026-04-22 21:26 | 27.74737 | -81.03141 | 39204 ft | 405 kts | 330° |
| 2026-04-22 21:27 | 27.78488 | -81.04699 | 39213 ft | 412 kts | 331° |
| 2026-04-22 21:28 | 27.83871 | -81.06921 | 39217 ft | 410 kts | 331° |
| 2026-04-22 21:28 | 27.89212 | -81.09141 | 39205 ft | 408 kts | 331° |
| 2026-04-22 21:29 | 27.94530 | -81.11349 | 39216 ft | 408 kts | 331° |
| 2026-04-22 21:29 | 27.99670 | -81.13486 | 39220 ft | 410 kts | 331° |
| 2026-04-22 21:30 | 28.05199 | -81.15352 | 39221 ft | 422 kts | 340° |
| 2026-04-22 21:30 | 28.11065 | -81.16332 | 39220 ft | 426 kts | 342° |
| 2026-04-22 21:31 | 28.16924 | -81.17298 | 39220 ft | 425 kts | 343° |
| 2026-04-22 21:31 | 28.22761 | -81.18232 | 39216 ft | 424 kts | 343° |
| 2026-04-22 21:32 | 28.28599 | -81.19182 | 39224 ft | 423 kts | 343° |
| 2026-04-22 21:32 | 28.34485 | -81.20136 | 39223 ft | 425 kts | 343° |
| 2026-04-22 21:33 | 28.40362 | -81.21090 | 39219 ft | 427 kts | 343° |
| 2026-04-22 21:33 | 28.46262 | -81.22048 | 39219 ft | 429 kts | 343° |
| 2026-04-22 21:34 | 28.52162 | -81.23007 | 39207 ft | 428 kts | 343° |
| 2026-04-22 21:34 | 28.58047 | -81.23966 | 39210 ft | 427 kts | 343° |
| 2026-04-22 21:35 | 28.63932 | -81.24926 | 39209 ft | 427 kts | 343° |
| 2026-04-22 21:35 | 28.69808 | -81.25885 | 39210 ft | 427 kts | 343° |
| 2026-04-22 21:36 | 28.75685 | -81.26845 | 39210 ft | 427 kts | 343° |
| 2026-04-22 21:36 | 28.81544 | -81.27805 | 39213 ft | 429 kts | 343° |
| 2026-04-22 21:37 | 28.87463 | -81.28773 | 39211 ft | 430 kts | 343° |
| 2026-04-22 21:37 | 28.93425 | -81.29598 | 39225 ft | 437 kts | 348° |
| 2026-04-22 21:38 | 28.99487 | -81.30073 | 39219 ft | 436 kts | 347° |
| 2026-04-22 21:38 | 29.04089 | -81.30451 | 39219 ft | 436 kts | 348° |
| 2026-04-22 21:39 | 29.10233 | -81.30921 | 39219 ft | 433 kts | 348° |
| 2026-04-22 21:39 | 29.16191 | -81.31406 | 39219 ft | 432 kts | 348° |
| 2026-04-22 21:40 | 29.22250 | -81.31884 | 39223 ft | 435 kts | 348° |
| 2026-04-22 21:40 | 29.28168 | -81.32351 | 39239 ft | 437 kts | 349° |
| 2026-04-22 21:41 | 29.34238 | -81.32694 | 39235 ft | 436 kts | 349° |
| 2026-04-22 21:41 | 29.40288 | -81.33061 | 39238 ft | 435 kts | 349° |
| 2026-04-22 21:42 | 29.46326 | -81.33411 | 39240 ft | 434 kts | 349° |
| 2026-04-22 21:42 | 29.52352 | -81.33769 | 39234 ft | 433 kts | 349° |
| 2026-04-22 21:43 | 29.58372 | -81.34124 | 39239 ft | 434 kts | 349° |
| 2026-04-22 21:43 | 29.64211 | -81.34469 | 39240 ft | 435 kts | 349° |
| 2026-04-22 21:44 | 29.70282 | -81.34831 | 38823 ft | 441 kts | 349° |
| 2026-04-22 21:44 | 29.73305 | -81.35003 | 38243 ft | 427 kts | 349° |
| 2026-04-22 21:44 | 29.76242 | -81.35170 | 37731 ft | 422 kts | 349° |
| 2026-04-22 21:45 | 29.79200 | -81.35361 | 37209 ft | 432 kts | 349° |
| 2026-04-22 21:45 | 29.82222 | -81.35548 | 36675 ft | 435 kts | 349° |
| 2026-04-22 21:45 | 29.85227 | -81.35710 | 36142 ft | 429 kts | 349° |
| 2026-04-22 21:45 | 29.87189 | -81.35819 | 35797 ft | 424 kts | 349° |
| 2026-04-22 21:46 | 29.88654 | -81.35906 | 35541 ft | 421 kts | 349° |
| 2026-04-22 21:47 | 29.90620 | -81.36029 | 35193 ft | 418 kts | 349° |
| 2026-04-22 21:47 | 29.93506 | -81.36208 | 34692 ft | 413 kts | 349° |
| 2026-04-22 21:47 | 29.96408 | -81.36379 | 34173 ft | 411 kts | 349° |
| 2026-04-22 21:47 | 29.99237 | -81.36544 | 33641 ft | 407 kts | 349° |
| 2026-04-22 21:48 | 30.02062 | -81.36713 | 33140 ft | 404 kts | 349° |
| 2026-04-22 21:48 | 30.04858 | -81.36882 | 32647 ft | 402 kts | 349° |
| 2026-04-22 21:48 | 30.07650 | -81.37049 | 32156 ft | 400 kts | 349° |
| 2026-04-22 21:48 | 30.10422 | -81.37213 | 31664 ft | 399 kts | 350° |
| 2026-04-22 21:49 | 30.13190 | -81.37378 | 31173 ft | 396 kts | 350° |
| 2026-04-22 21:49 | 30.15926 | -81.37541 | 30691 ft | 393 kts | 350° |
| 2026-04-22 21:49 | 30.18649 | -81.37704 | 30173 ft | 390 kts | 350° |
| 2026-04-22 21:49 | 30.21145 | -81.37855 | 29702 ft | 386 kts | 351° |
| 2026-04-22 21:50 | 30.23806 | -81.38012 | 29233 ft | 382 kts | 351° |
| 2026-04-22 21:50 | 30.26312 | -81.38162 | 28801 ft | 378 kts | 351° |
| 2026-04-22 21:50 | 30.28940 | -81.38321 | 28331 ft | 377 kts | 351° |
| 2026-04-22 21:50 | 30.31549 | -81.38479 | 27872 ft | 376 kts | 351° |
| 2026-04-22 21:51 | 30.34107 | -81.38632 | 27420 ft | 375 kts | 351° |
| 2026-04-22 21:51 | 30.36700 | -81.38786 | 26960 ft | 372 kts | 351° |
| 2026-04-22 21:51 | 30.39271 | -81.38940 | 26508 ft | 368 kts | 351° |
| 2026-04-22 21:52 | 30.44339 | -81.39246 | 25612 ft | 362 kts | 352° |
| 2026-04-22 21:52 | 30.46848 | -81.39396 | 25167 ft | 360 kts | 352° |
| 2026-04-22 21:52 | 30.49348 | -81.39529 | 24726 ft | 358 kts | 352° |
| 2026-04-22 21:52 | 30.51832 | -81.39650 | 24288 ft | 356 kts | 353° |
| 2026-04-22 21:53 | 30.54302 | -81.39780 | 23851 ft | 354 kts | 353° |
| 2026-04-22 21:53 | 30.56753 | -81.39913 | 23377 ft | 351 kts | 353° |
| 2026-04-22 21:53 | 30.59171 | -81.40041 | 22945 ft | 346 kts | 353° |
| 2026-04-22 21:53 | 30.61572 | -81.40167 | 22518 ft | 344 kts | 353° |
| 2026-04-22 21:54 | 30.63962 | -81.40294 | 22095 ft | 343 kts | 353° |
| 2026-04-22 21:54 | 30.66344 | -81.40421 | 21674 ft | 342 kts | 353° |
| 2026-04-22 21:54 | 30.68706 | -81.40545 | 21255 ft | 338 kts | 353° |
| 2026-04-22 21:54 | 30.71052 | -81.40670 | 20839 ft | 335 kts | 353° |
| 2026-04-22 21:55 | 30.73371 | -81.40793 | 20434 ft | 333 kts | 353° |
| 2026-04-22 21:55 | 30.75674 | -81.40915 | 20016 ft | 331 kts | 353° |
| 2026-04-22 21:55 | 30.77967 | -81.41037 | 19615 ft | 329 kts | 353° |
| 2026-04-22 21:55 | 30.80249 | -81.41159 | 19210 ft | 327 kts | 353° |
| 2026-04-22 21:56 | 30.82519 | -81.41279 | 18813 ft | 326 kts | 353° |
| 2026-04-22 21:56 | 30.84773 | -81.41399 | 18392 ft | 323 kts | 353° |
| 2026-04-22 21:56 | 30.87010 | -81.41518 | 17974 ft | 320 kts | 354° |
| 2026-04-22 21:56 | 30.89228 | -81.41634 | 17571 ft | 319 kts | 354° |
| 2026-04-22 21:57 | 30.91438 | -81.41754 | 17183 ft | 318 kts | 354° |
| 2026-04-22 21:57 | 30.93643 | -81.41873 | 16787 ft | 317 kts | 354° |
| 2026-04-22 21:57 | 30.95840 | -81.41990 | 16406 ft | 316 kts | 354° |
| 2026-04-22 21:57 | 30.98003 | -81.42103 | 16022 ft | 315 kts | 354° |
| 2026-04-22 21:58 | 31.00191 | -81.42220 | 15635 ft | 314 kts | 354° |
| 2026-04-22 21:58 | 31.02374 | -81.42339 | 15246 ft | 313 kts | 355° |
| 2026-04-22 21:58 | 31.04536 | -81.42453 | 14864 ft | 311 kts | 355° |
| 2026-04-22 21:58 | 31.06696 | -81.42569 | 14485 ft | 309 kts | 355° |
| 2026-04-22 21:59 | 31.08842 | -81.42681 | 14101 ft | 308 kts | 355° |
| 2026-04-22 21:59 | 31.10983 | -81.42797 | 13544 ft | 308 kts | 355° |
| 2026-04-22 21:59 | 31.13108 | -81.42914 | 13116 ft | 304 kts | 357° |
| 2026-04-22 21:59 | 31.15188 | -81.42472 | 12758 ft | 307 kts | 22° |
| 2026-04-22 22:00 | 31.17013 | -81.41183 | 12459 ft | 308 kts | 35° |
| 2026-04-22 22:00 | 31.18729 | -81.39693 | 12205 ft | 307 kts | 37° |
| 2026-04-22 22:00 | 31.20421 | -81.38177 | 11955 ft | 306 kts | 38° |
| 2026-04-22 22:00 | 31.22102 | -81.36649 | 11703 ft | 305 kts | 38° |
| 2026-04-22 22:01 | 31.23778 | -81.35135 | 11459 ft | 305 kts | 38° |
| 2026-04-22 22:01 | 31.25473 | -81.33626 | 11223 ft | 307 kts | 38° |
| 2026-04-22 22:01 | 31.27172 | -81.32116 | 11029 ft | 306 kts | 38° |
| 2026-04-22 22:01 | 31.28868 | -81.30611 | 11010 ft | 311 kts | 38° |
| 2026-04-22 22:02 | 31.30617 | -81.29061 | 11022 ft | 317 kts | 38° |
| 2026-04-22 22:02 | 31.32383 | -81.27494 | 11014 ft | 320 kts | 38° |
| 2026-04-22 22:02 | 31.34134 | -81.25939 | 11019 ft | 320 kts | 38° |
| 2026-04-22 22:02 | 31.35927 | -81.24345 | 11018 ft | 320 kts | 38° |
| 2026-04-22 22:03 | 31.37670 | -81.22786 | 11012 ft | 319 kts | 38° |
| 2026-04-22 22:03 | 31.39440 | -81.21210 | 11010 ft | 320 kts | 37° |
| 2026-04-22 22:03 | 31.41211 | -81.19635 | 11023 ft | 320 kts | 37° |
| 2026-04-22 22:03 | 31.42981 | -81.18054 | 11014 ft | 320 kts | 38° |
| 2026-04-22 22:04 | 31.44746 | -81.16476 | 11018 ft | 320 kts | 38° |
| 2026-04-22 22:04 | 31.46517 | -81.14891 | 11012 ft | 320 kts | 37° |
| 2026-04-22 22:04 | 31.48299 | -81.13293 | 11006 ft | 322 kts | 38° |
| 2026-04-22 22:04 | 31.50072 | -81.11702 | 11007 ft | 321 kts | 38° |
| 2026-04-22 22:05 | 31.51842 | -81.10112 | 11011 ft | 321 kts | 37° |
| 2026-04-22 22:05 | 31.53609 | -81.08522 | 11006 ft | 320 kts | 38° |
| 2026-04-22 22:05 | 31.55375 | -81.06929 | 11003 ft | 320 kts | 37° |
| 2026-04-22 22:05 | 31.57139 | -81.05336 | 11010 ft | 321 kts | 37° |
| 2026-04-22 22:06 | 31.58904 | -81.03740 | 11003 ft | 321 kts | 37° |
| 2026-04-22 22:06 | 31.60671 | -81.02140 | 11005 ft | 320 kts | 37° |
| 2026-04-22 22:06 | 31.62428 | -81.00546 | 11005 ft | 320 kts | 37° |
| 2026-04-22 22:06 | 31.64188 | -80.98948 | 11006 ft | 320 kts | 37° |
| 2026-04-22 22:07 | 31.65946 | -80.97349 | 11002 ft | 320 kts | 37° |
| 2026-04-22 22:07 | 31.67712 | -80.95743 | 11003 ft | 321 kts | 37° |
| 2026-04-22 22:07 | 31.69473 | -80.94137 | 10998 ft | 321 kts | 37° |
| 2026-04-22 22:07 | 31.71236 | -80.92527 | 11006 ft | 321 kts | 37° |
| 2026-04-22 22:08 | 31.72994 | -80.90919 | 10999 ft | 320 kts | 37° |
| 2026-04-22 22:08 | 31.74751 | -80.89308 | 10918 ft | 321 kts | 37° |
| 2026-04-22 22:08 | 31.76457 | -80.87741 | 10644 ft | 303 kts | 38° |
| 2026-04-22 22:08 | 31.78082 | -80.86252 | 10353 ft | 291 kts | 37° |
| 2026-04-22 22:09 | 31.79679 | -80.84794 | 10060 ft | 291 kts | 37° |
| 2026-04-22 22:09 | 31.81271 | -80.83336 | 9742 ft | 288 kts | 37° |
| 2026-04-22 22:09 | 31.82845 | -80.81896 | 9427 ft | 286 kts | 38° |
| 2026-04-22 22:09 | 31.84323 | -80.80338 | 9113 ft | 285 kts | 47° |
| 2026-04-22 22:10 | 31.85581 | -80.78556 | 8804 ft | 282 kts | 51° |
| 2026-04-22 22:10 | 31.86784 | -80.76742 | 8498 ft | 280 kts | 52° |
| 2026-04-22 22:10 | 31.88021 | -80.74988 | 8211 ft | 278 kts | 48° |
| 2026-04-22 22:10 | 31.89300 | -80.73325 | 7925 ft | 277 kts | 47° |
| 2026-04-22 22:11 | 31.90596 | -80.71658 | 7678 ft | 275 kts | 47° |
| 2026-04-22 22:11 | 31.91881 | -80.70084 | 7441 ft | 274 kts | 44° |
| 2026-04-22 22:11 | 31.93272 | -80.68555 | 7199 ft | 272 kts | 43° |
| 2026-04-22 22:11 | 31.94659 | -80.67056 | 6955 ft | 270 kts | 42° |
| 2026-04-22 22:12 | 31.96041 | -80.65573 | 6716 ft | 268 kts | 42° |
| 2026-04-22 22:12 | 31.97409 | -80.64105 | 6471 ft | 267 kts | 42° |
| 2026-04-22 22:12 | 31.98783 | -80.62632 | 6218 ft | 266 kts | 42° |
| 2026-04-22 22:12 | 32.00152 | -80.61165 | 5966 ft | 265 kts | 42° |
| 2026-04-22 22:13 | 32.01512 | -80.59706 | 5717 ft | 263 kts | 42° |
| 2026-04-22 22:13 | 32.03024 | -80.58514 | 5466 ft | 261 kts | 26° |
| 2026-04-22 22:13 | 32.04670 | -80.57631 | 5222 ft | 260 kts | 24° |
| 2026-04-22 22:13 | 32.06324 | -80.56776 | 4990 ft | 259 kts | 23° |
| 2026-04-22 22:14 | 32.07985 | -80.55934 | 4764 ft | 261 kts | 23° |
| 2026-04-22 22:14 | 32.09652 | -80.55090 | 4537 ft | 260 kts | 23° |
| 2026-04-22 22:14 | 32.11308 | -80.54251 | 4312 ft | 259 kts | 23° |
| 2026-04-22 22:14 | 32.12966 | -80.53408 | 4086 ft | 259 kts | 23° |
| 2026-04-22 22:15 | 32.14620 | -80.52569 | 3864 ft | 259 kts | 23° |
| 2026-04-22 22:15 | 32.16278 | -80.51729 | 3641 ft | 258 kts | 23° |
| 2026-04-22 22:15 | 32.17923 | -80.50899 | 3421 ft | 256 kts | 23° |
| 2026-04-22 22:15 | 32.19564 | -80.50061 | 3196 ft | 258 kts | 24° |
| 2026-04-22 22:16 | 32.21199 | -80.49201 | 3000 ft | 257 kts | 24° |
| 2026-04-22 22:16 | 32.22832 | -80.48338 | 2800 ft | 257 kts | 24° |
| 2026-04-22 22:16 | 32.24466 | -80.47471 | 2599 ft | 255 kts | 24° |
| 2026-04-22 22:16 | 32.26026 | -80.46636 | 2395 ft | 240 kts | 24° |
| 2026-04-22 22:17 | 32.27519 | -80.45867 | 2190 ft | 234 kts | 24° |
| 2026-04-22 22:17 | 32.29002 | -80.45152 | 2002 ft | 224 kts | 14° |
| 2026-04-22 22:17 | 32.30538 | -80.45240 | 1999 ft | 222 kts | 336° |
| 2026-04-22 22:17 | 32.31658 | -80.46315 | 1998 ft | 199 kts | 300° |
| 2026-04-22 22:18 | 32.32265 | -80.47743 | 1999 ft | 193 kts | 293° |
| 2026-04-22 22:18 | 32.32835 | -80.49176 | 2001 ft | 192 kts | 290° |
| 2026-04-22 22:18 | 32.33237 | -80.50685 | 1997 ft | 193 kts | 282° |
| 2026-04-22 22:18 | 32.33542 | -80.52213 | 1996 ft | 192 kts | 274° |
| 2026-04-22 22:19 | 32.33257 | -80.53697 | 2001 ft | 187 kts | 239° |
| 2026-04-22 22:19 | 32.32709 | -80.55095 | 2006 ft | 191 kts | 252° |
| 2026-04-22 22:19 | 32.32449 | -80.56638 | 2008 ft | 192 kts | 256° |
| 2026-04-22 22:19 | 32.32147 | -80.58182 | 2007 ft | 193 kts | 253° |
| 2026-04-22 22:20 | 32.31834 | -80.59714 | 2009 ft | 192 kts | 255° |
| 2026-04-22 22:20 | 32.31546 | -80.61239 | 2001 ft | 186 kts | 255° |
| 2026-04-22 22:20 | 32.31271 | -80.62715 | 2011 ft | 183 kts | 255° |
| 2026-04-22 22:20 | 32.30851 | -80.64130 | 2007 ft | 183 kts | 235° |
| 2026-04-22 22:21 | 32.30038 | -80.65250 | 2002 ft | 177 kts | 219° |
| 2026-04-22 22:21 | 32.29019 | -80.66086 | 1787 ft | 181 kts | 209° |
| 2026-04-22 22:21 | 32.27920 | -80.66772 | 1470 ft | 174 kts | 203° |
| 2026-04-22 22:21 | 32.26836 | -80.67313 | 1193 ft | 169 kts | 198° |
| 2026-04-22 22:22 | 32.25772 | -80.67841 | 801 ft | 153 kts | 205° |
| 2026-04-22 22:22 | 32.24967 | -80.68308 | 543 ft | 113 kts | 205° |
| 2026-04-22 22:22 | 32.24258 | -80.68696 | 310 ft | 113 kts | 206° |
| 2026-04-22 22:22 | 32.23535 | -80.69108 | 147 ft | 114 kts | 208° |
| 2026-04-22 22:23 | 32.23071 | -80.69380 | 42 ft | 106 kts | 207° |
| 2026-04-22 22:23 | 32.22437 | -80.69749 | 21 ft | 45 kts | 206° |
| 2026-04-22 22:23 | 32.22333 | -80.69787 | 20 ft | 5 kts | 128° |
| 2026-04-22 22:23 | 32.22320 | -80.69761 | 19 ft | 3 kts | 118° |
| 2026-04-22 22:24 | 32.22318 | -80.69756 | 19 ft | 0 kts | 118° |
| 2026-04-22 22:24 | 32.22283 | -80.69730 | 18 ft | 8 kts | 195° |
| 2026-04-22 22:24 | 32.22221 | -80.69763 | 18 ft | 7 kts | 189° |
| 2026-04-22 22:24 | 32.22207 | -80.69745 | 18 ft | 3 kts | 114° |
| 2026-04-22 22:25 | 32.22206 | -80.69743 | 18 ft | 0 kts | 115° |
| 2026-04-22 22:25 | 32.22205 | -80.69740 | 18 ft | 0 kts | 114° |